Погода Барао де кокайсна 2 недели

Минас-Жерайс, Бразилия

15 - 27 июля
  • 15июля
    Сегодня
    +12°
    +24°
    Небольшая облачность
    ВремяПогодаТемператураВлажностьДавлениеВетер, м/сВероятность осадков
    00:00Ясно и безоблачно+15°C66 %691 мм1.3 м/с5 %
    03:00Ясно и безоблачно+16°C60 %690 мм0.7 м/с5 %
    06:00Ясно и безоблачно+14°C65 %691 мм0.9 м/с5 %
    09:00Ясно и безоблачно+16°C61 %692 мм0.5 м/с5 %
    12:00Практически безоблачно+21°C52 %693 мм1.7 м/с5 %
    15:00Небольшая облачность+23°C44 %692 мм1.8 м/с5 %
    18:00Ясно и безоблачно+17°C63 %691 мм1.9 м/с5 %
    21:00Ясно и безоблачно+15°C73 %691 мм1.4 м/с5 %
  • 16июля
    Вторник
    +11°
    +23°
    Облачно с прояснениями
    ВремяПогодаТемператураВлажностьДавлениеВетер, м/сВероятность осадков
    00:00Облачно с прояснениями+14°C73 %691 мм1.7 м/с5 %
    03:00Облачно с прояснениями+12°C82 %690 мм1.7 м/с5 %
    06:00Облачно с прояснениями+12°C84 %691 мм1.3 м/с1 %
    09:00Облачно с прояснениями+15°C77 %693 мм1.9 м/с5 %
    12:00Облачно с прояснениями+20°C58 %693 мм3.0 м/с21 %
    15:00Облачно с прояснениями+22°C53 %692 мм2.5 м/с8 %
    18:00Облачно с прояснениями+18°C68 %692 мм1.5 м/с2 %
    21:00Ясно и безоблачно+17°C74 %692 мм0.9 м/с5 %
  • 17июля
    Среда
    +13°
    +23°
    Облачно с прояснениями
    ВремяПогодаТемператураВлажностьДавлениеВетер, м/сВероятность осадков
    00:00Ясно и безоблачно+13°C84 %692 мм1.6 м/с5 %
    03:00Ясно и безоблачно+12°C88 %691 мм1.6 м/с5 %
    06:00Ясно и безоблачно+12°C93 %691 мм1.3 м/с5 %
    09:00Практически безоблачно+16°C79 %693 мм1.4 м/с3 %
    12:00Практически безоблачно+21°C56 %693 мм1.1 м/с2 %
    15:00Облачно с прояснениями+23°C49 %691 мм1.6 м/с4 %
    18:00Ясно и безоблачно+18°C62 %690 мм1.9 м/с5 %
    21:00Ясно и безоблачно+16°C78 %691 мм0.8 м/с5 %
  • 18июля
    Четверг
    +11°
    +25°
    Ясно и безоблачно
    ВремяПогодаТемператураВлажностьДавлениеВетер, м/сВероятность осадков
    00:00Ясно и безоблачно+15°C80 %690 мм1.2 м/с5 %
    03:00Ясно и безоблачно+14°C83 %689 мм1.4 м/с5 %
    06:00Ясно и безоблачно+15°C73 %690 мм1.0 м/с5 %
    09:00Ясно и безоблачно+16°C68 %692 мм1.0 м/с5 %
    12:00Ясно и безоблачно+22°C50 %692 мм1.4 м/с3 %
    15:00Ясно и безоблачно+24°C43 %691 мм1.9 м/с5 %
    18:00Ясно и безоблачно+18°C63 %690 мм1.4 м/с5 %
    21:00Ясно и безоблачно+17°C70 %691 мм1.4 м/с5 %
Мы используем cookies
Соглашаюсь